sensor_id;sensor_type;location;lat;lon;timestamp;pressure;altitude;pressure_sealevel;temperature;humidity
79366;BME280;68833;53.160;17.920;2024-02-21T00:00:09;101186.93;;;5.79;86.19
79366;BME280;68833;53.160;17.920;2024-02-21T00:02:57;101188.36;;;5.80;86.35
79366;BME280;68833;53.160;17.920;2024-02-21T00:05:25;101183.48;;;5.81;86.45
79366;BME280;68833;53.160;17.920;2024-02-21T00:07:51;101182.75;;;5.79;86.53
79366;BME280;68833;53.160;17.920;2024-02-21T00:10:18;101183.98;;;5.79;86.56
79366;BME280;68833;53.160;17.920;2024-02-21T00:12:45;101183.81;;;5.80;86.45
79366;BME280;68833;53.160;17.920;2024-02-21T00:15:11;101181.05;;;5.81;86.48
79366;BME280;68833;53.160;17.920;2024-02-21T00:17:40;101178.45;;;5.82;86.59
79366;BME280;68833;53.160;17.920;2024-02-21T00:20:07;101177.06;;;5.82;86.41
79366;BME280;68833;53.160;17.920;2024-02-21T00:22:33;101175.48;;;5.81;86.78
79366;BME280;68833;53.160;17.920;2024-02-21T00:24:59;101176.17;;;5.81;86.54
79366;BME280;68833;53.160;17.920;2024-02-21T00:27:26;101174.61;;;5.82;86.71
79366;BME280;68833;53.160;17.920;2024-02-21T00:29:52;101174.98;;;5.83;86.56
79366;BME280;68833;53.160;17.920;2024-02-21T00:32:18;101170.30;;;5.83;86.36
79366;BME280;68833;53.160;17.920;2024-02-21T00:34:44;101163.14;;;5.84;86.75
79366;BME280;68833;53.160;17.920;2024-02-21T00:37:11;101161.79;;;5.85;86.70
79366;BME280;68833;53.160;17.920;2024-02-21T00:39:37;101163.20;;;5.85;86.63
79366;BME280;68833;53.160;17.920;2024-02-21T00:42:03;101163.74;;;5.88;86.64
79366;BME280;68833;53.160;17.920;2024-02-21T00:44:30;101160.77;;;5.89;86.43
79366;BME280;68833;53.160;17.920;2024-02-21T00:46:57;101159.73;;;5.89;86.44
79366;BME280;68833;53.160;17.920;2024-02-21T00:49:23;101150.48;;;5.87;86.44
79366;BME280;68833;53.160;17.920;2024-02-21T00:51:49;101154.12;;;5.85;86.92
79366;BME280;68833;53.160;17.920;2024-02-21T00:54:16;101146.77;;;5.85;86.32
79366;BME280;68833;53.160;17.920;2024-02-21T00:56:43;101145.89;;;5.84;86.91
79366;BME280;68833;53.160;17.920;2024-02-21T00:59:09;101146.02;;;5.83;86.84
79366;BME280;68833;53.160;17.920;2024-02-21T01:01:35;101144.24;;;5.80;86.47
79366;BME280;68833;53.160;17.920;2024-02-21T01:04:01;101139.00;;;5.79;86.77
79366;BME280;68833;53.160;17.920;2024-02-21T01:06:27;101139.52;;;5.78;86.77
79366;BME280;68833;53.160;17.920;2024-02-21T01:08:54;101138.12;;;5.78;86.93
79366;BME280;68833;53.160;17.920;2024-02-21T01:11:20;101133.75;;;5.78;86.79
79366;BME280;68833;53.160;17.920;2024-02-21T01:13:46;101130.80;;;5.78;86.76
79366;BME280;68833;53.160;17.920;2024-02-21T01:16:12;101127.66;;;5.78;86.59
79366;BME280;68833;53.160;17.920;2024-02-21T01:18:39;101125.40;;;5.78;86.85
79366;BME280;68833;53.160;17.920;2024-02-21T01:21:06;101122.79;;;5.78;86.86
79366;BME280;68833;53.160;17.920;2024-02-21T01:23:34;101120.70;;;5.79;86.91
79366;BME280;68833;53.160;17.920;2024-02-21T01:26:00;101115.66;;;5.80;87.00
79366;BME280;68833;53.160;17.920;2024-02-21T01:28:26;101111.69;;;5.81;86.78
79366;BME280;68833;53.160;17.920;2024-02-21T01:30:53;101109.06;;;5.82;86.90
79366;BME280;68833;53.160;17.920;2024-02-21T01:33:19;101106.46;;;5.82;86.77
79366;BME280;68833;53.160;17.920;2024-02-21T01:35:45;101106.29;;;5.82;86.71
79366;BME280;68833;53.160;17.920;2024-02-21T01:38:13;101103.84;;;5.82;86.84
79366;BME280;68833;53.160;17.920;2024-02-21T01:40:39;101107.88;;;5.83;87.05
79366;BME280;68833;53.160;17.920;2024-02-21T01:43:18;101104.76;;;5.83;87.21
79366;BME280;68833;53.160;17.920;2024-02-21T01:45:49;101103.19;;;5.84;86.99
79366;BME280;68833;53.160;17.920;2024-02-21T01:48:17;101102.15;;;5.86;87.00
79366;BME280;68833;53.160;17.920;2024-02-21T01:50:45;101100.25;;;5.86;87.16
79366;BME280;68833;53.160;17.920;2024-02-21T01:53:13;101096.55;;;5.84;86.92
79366;BME280;68833;53.160;17.920;2024-02-21T01:55:47;101094.48;;;5.84;87.06
79366;BME280;68833;53.160;17.920;2024-02-21T01:58:15;101093.59;;;5.84;86.78
79366;BME280;68833;53.160;17.920;2024-02-21T02:00:43;101093.96;;;5.85;87.07
79366;BME280;68833;53.160;17.920;2024-02-21T02:11:51;101083.55;;;5.77;87.13
79366;BME280;68833;53.160;17.920;2024-02-21T02:14:18;101082.32;;;5.77;87.20
79366;BME280;68833;53.160;17.920;2024-02-21T02:16:47;101081.44;;;5.76;87.11
79366;BME280;68833;53.160;17.920;2024-02-21T02:19:14;101077.95;;;5.76;87.32
79366;BME280;68833;53.160;17.920;2024-02-21T02:21:53;101075.14;;;5.74;87.02
79366;BME280;68833;53.160;17.920;2024-02-21T02:24:24;101074.09;;;5.74;87.28
79366;BME280;68833;53.160;17.920;2024-02-21T02:26:51;101072.33;;;5.73;87.30
79366;BME280;68833;53.160;17.920;2024-02-21T02:29:17;101066.61;;;5.75;87.05
79366;BME280;68833;53.160;17.920;2024-02-21T02:31:44;101068.70;;;5.76;87.10
79366;BME280;68833;53.160;17.920;2024-02-21T02:34:10;101063.13;;;5.76;87.01
79366;BME280;68833;53.160;17.920;2024-02-21T02:36:36;101063.29;;;5.75;87.35
79366;BME280;68833;53.160;17.920;2024-02-21T02:39:02;101059.45;;;5.74;86.83
79366;BME280;68833;53.160;17.920;2024-02-21T02:41:29;101055.62;;;5.75;87.21
79366;BME280;68833;53.160;17.920;2024-02-21T02:43:55;101048.84;;;5.76;87.33
79366;BME280;68833;53.160;17.920;2024-02-21T02:46:21;101050.10;;;5.79;87.55
79366;BME280;68833;53.160;17.920;2024-02-21T02:48:48;101047.52;;;5.80;87.46
79366;BME280;68833;53.160;17.920;2024-02-21T02:51:14;101042.27;;;5.80;87.22
79366;BME280;68833;53.160;17.920;2024-02-21T02:53:40;101047.84;;;5.79;87.23
79366;BME280;68833;53.160;17.920;2024-02-21T02:56:07;101042.58;;;5.77;86.99
79366;BME280;68833;53.160;17.920;2024-02-21T02:58:33;101043.11;;;5.77;87.03
79366;BME280;68833;53.160;17.920;2024-02-21T03:01:00;101042.59;;;5.77;87.30
79366;BME280;68833;53.160;17.920;2024-02-21T03:03:28;101039.10;;;5.77;87.14
79366;BME280;68833;53.160;17.920;2024-02-21T03:05:55;101033.00;;;5.77;87.55
79366;BME280;68833;53.160;17.920;2024-02-21T03:08:21;101026.19;;;5.77;87.18
79366;BME280;68833;53.160;17.920;2024-02-21T03:10:48;101025.46;;;5.74;87.46
79366;BME280;68833;53.160;17.920;2024-02-21T03:13:15;101025.45;;;5.73;87.41
79366;BME280;68833;53.160;17.920;2024-02-21T03:15:41;101025.63;;;5.73;87.43
79366;BME280;68833;53.160;17.920;2024-02-21T03:18:08;101020.73;;;5.72;87.16
79366;BME280;68833;53.160;17.920;2024-02-21T03:20:34;101021.45;;;5.75;87.34
79366;BME280;68833;53.160;17.920;2024-02-21T03:23:00;101021.63;;;5.75;87.22
79366;BME280;68833;53.160;17.920;2024-02-21T03:25:27;101021.78;;;5.73;87.28
79366;BME280;68833;53.160;17.920;2024-02-21T03:27:53;101017.59;;;5.72;87.31
79366;BME280;68833;53.160;17.920;2024-02-21T03:30:19;101015.84;;;5.72;87.70
79366;BME280;68833;53.160;17.920;2024-02-21T03:32:46;101015.34;;;5.72;87.76
79366;BME280;68833;53.160;17.920;2024-02-21T03:35:13;101012.73;;;5.74;87.75
79366;BME280;68833;53.160;17.920;2024-02-21T03:37:39;101012.77;;;5.76;87.57
79366;BME280;68833;53.160;17.920;2024-02-21T03:40:08;101007.38;;;5.77;87.89
79366;BME280;68833;53.160;17.920;2024-02-21T03:42:35;101006.00;;;5.78;87.63
79366;BME280;68833;53.160;17.920;2024-02-21T03:45:01;101002.52;;;5.78;87.49
79366;BME280;68833;53.160;17.920;2024-02-21T03:47:27;101002.55;;;5.81;87.51
79366;BME280;68833;53.160;17.920;2024-02-21T03:49:54;101005.38;;;5.83;87.46
79366;BME280;68833;53.160;17.920;2024-02-21T03:52:20;101004.36;;;5.84;87.38
79366;BME280;68833;53.160;17.920;2024-02-21T03:54:47;101005.41;;;5.85;87.60
79366;BME280;68833;53.160;17.920;2024-02-21T03:57:13;101003.48;;;5.84;87.47
79366;BME280;68833;53.160;17.920;2024-02-21T03:59:39;101001.04;;;5.84;87.85
79366;BME280;68833;53.160;17.920;2024-02-21T04:02:06;101000.69;;;5.84;87.59
79366;BME280;68833;53.160;17.920;2024-02-21T04:04:35;100996.70;;;5.85;87.64
79366;BME280;68833;53.160;17.920;2024-02-21T04:07:04;100993.22;;;5.86;87.81
79366;BME280;68833;53.160;17.920;2024-02-21T04:09:34;100993.04;;;5.85;87.92
79366;BME280;68833;53.160;17.920;2024-02-21T04:12:01;100988.68;;;5.85;87.94
79366;BME280;68833;53.160;17.920;2024-02-21T04:14:27;100984.14;;;5.86;87.54
79366;BME280;68833;53.160;17.920;2024-02-21T04:16:53;100981.20;;;5.85;87.69
79366;BME280;68833;53.160;17.920;2024-02-21T04:19:19;100983.46;;;5.86;87.71
79366;BME280;68833;53.160;17.920;2024-02-21T04:21:46;100978.93;;;5.86;87.74
79366;BME280;68833;53.160;17.920;2024-02-21T04:24:13;100973.71;;;5.86;88.07
79366;BME280;68833;53.160;17.920;2024-02-21T04:26:39;100967.44;;;5.86;87.66
79366;BME280;68833;53.160;17.920;2024-02-21T04:29:05;100966.59;;;5.88;87.63
79366;BME280;68833;53.160;17.920;2024-02-21T04:31:34;100964.34;;;5.89;87.71
79366;BME280;68833;53.160;17.920;2024-02-21T04:34:01;100960.31;;;5.89;87.91
79366;BME280;68833;53.160;17.920;2024-02-21T04:36:28;100959.42;;;5.87;87.93
79366;BME280;68833;53.160;17.920;2024-02-21T04:38:55;100953.64;;;5.86;87.65
79366;BME280;68833;53.160;17.920;2024-02-21T04:41:21;100955.89;;;5.83;87.89
79366;BME280;68833;53.160;17.920;2024-02-21T04:43:48;100948.00;;;5.81;87.64
79366;BME280;68833;53.160;17.920;2024-02-21T04:46:14;100950.63;;;5.82;87.90
79366;BME280;68833;53.160;17.920;2024-02-21T04:48:41;100949.06;;;5.82;87.82
79366;BME280;68833;53.160;17.920;2024-02-21T04:51:08;100947.50;;;5.82;88.18
79366;BME280;68833;53.160;17.920;2024-02-21T04:53:34;100942.80;;;5.83;88.08
79366;BME280;68833;53.160;17.920;2024-02-21T04:56:01;100942.47;;;5.84;87.68
79366;BME280;68833;53.160;17.920;2024-02-21T04:58:27;100939.16;;;5.84;87.91
79366;BME280;68833;53.160;17.920;2024-02-21T05:00:54;100939.52;;;5.84;88.01
79366;BME280;68833;53.160;17.920;2024-02-21T05:03:21;100932.72;;;5.85;87.98
79366;BME280;68833;53.160;17.920;2024-02-21T05:05:47;100928.00;;;5.84;87.80
79366;BME280;68833;53.160;17.920;2024-02-21T05:08:14;100929.74;;;5.84;87.99
79366;BME280;68833;53.160;17.920;2024-02-21T05:10:41;100924.67;;;5.83;88.08
79366;BME280;68833;53.160;17.920;2024-02-21T05:13:09;100918.24;;;5.83;87.92
79366;BME280;68833;53.160;17.920;2024-02-21T05:15:35;100912.84;;;5.84;88.19
79366;BME280;68833;53.160;17.920;2024-02-21T05:18:02;100910.23;;;5.85;87.82
79366;BME280;68833;53.160;17.920;2024-02-21T05:20:28;100911.28;;;5.85;88.26
79366;BME280;68833;53.160;17.920;2024-02-21T05:22:54;100911.62;;;5.85;88.19
79366;BME280;68833;53.160;17.920;2024-02-21T05:25:21;100910.42;;;5.86;88.07
79366;BME280;68833;53.160;17.920;2024-02-21T05:27:47;100907.14;;;5.88;88.06
79366;BME280;68833;53.160;17.920;2024-02-21T05:30:14;100902.27;;;5.89;87.91
79366;BME280;68833;53.160;17.920;2024-02-21T05:32:41;100899.14;;;5.89;88.12
79366;BME280;68833;53.160;17.920;2024-02-21T05:35:07;100896.69;;;5.89;88.18
79366;BME280;68833;53.160;17.920;2024-02-21T05:37:33;100897.20;;;5.88;88.10
79366;BME280;68833;53.160;17.920;2024-02-21T05:40:00;100894.92;;;5.87;88.20
79366;BME280;68833;53.160;17.920;2024-02-21T05:42:26;100891.27;;;5.87;88.19
79366;BME280;68833;53.160;17.920;2024-02-21T05:44:52;100883.23;;;5.85;88.19
79366;BME280;68833;53.160;17.920;2024-02-21T05:47:21;100886.20;;;5.87;88.21
79366;BME280;68833;53.160;17.920;2024-02-21T05:49:47;100885.33;;;5.86;88.08
79366;BME280;68833;53.160;17.920;2024-02-21T05:52:14;100882.36;;;5.86;88.24
79366;BME280;68833;53.160;17.920;2024-02-21T05:54:40;100881.30;;;5.85;88.11
79366;BME280;68833;53.160;17.920;2024-02-21T05:57:07;100876.73;;;5.82;88.25
79366;BME280;68833;53.160;17.920;2024-02-21T05:59:34;100874.80;;;5.81;88.33
79366;BME280;68833;53.160;17.920;2024-02-21T06:02:02;100867.65;;;5.81;88.27
79366;BME280;68833;53.160;17.920;2024-02-21T06:04:30;100865.21;;;5.82;88.45
79366;BME280;68833;53.160;17.920;2024-02-21T06:06:56;100863.86;;;5.83;88.71
79366;BME280;68833;53.160;17.920;2024-02-21T06:09:22;100869.08;;;5.84;88.36
79366;BME280;68833;53.160;17.920;2024-02-21T06:11:48;100866.46;;;5.83;88.56
79366;BME280;68833;53.160;17.920;2024-02-21T06:14:15;100860.70;;;5.82;88.62
79366;BME280;68833;53.160;17.920;2024-02-21T06:16:43;100863.84;;;5.82;88.54
79366;BME280;68833;53.160;17.920;2024-02-21T06:19:09;100858.79;;;5.83;88.55
79366;BME280;68833;53.160;17.920;2024-02-21T06:21:36;100857.55;;;5.82;88.36
79366;BME280;68833;53.160;17.920;2024-02-21T06:24:03;100858.60;;;5.82;88.74
79366;BME280;68833;53.160;17.920;2024-02-21T06:26:30;100861.04;;;5.82;88.71
79366;BME280;68833;53.160;17.920;2024-02-21T06:28:56;100855.14;;;5.83;88.70
79366;BME280;68833;53.160;17.920;2024-02-21T06:31:23;100854.79;;;5.84;88.63
79366;BME280;68833;53.160;17.920;2024-02-21T06:33:49;100853.59;;;5.86;88.67
79366;BME280;68833;53.160;17.920;2024-02-21T06:36:15;100852.91;;;5.86;88.64
79366;BME280;68833;53.160;17.920;2024-02-21T06:38:42;100852.77;;;5.88;88.64
79366;BME280;68833;53.160;17.920;2024-02-21T06:41:16;100853.96;;;5.87;88.67
79366;BME280;68833;53.160;17.920;2024-02-21T06:43:42;100848.39;;;5.88;88.69
79366;BME280;68833;53.160;17.920;2024-02-21T06:46:09;100845.61;;;5.89;88.78
79366;BME280;68833;53.160;17.920;2024-02-21T06:48:35;100845.96;;;5.89;88.56
79366;BME280;68833;53.160;17.920;2024-02-21T06:51:01;100845.27;;;5.89;88.77
79366;BME280;68833;53.160;17.920;2024-02-21T06:53:28;100845.61;;;5.89;88.68
79366;BME280;68833;53.160;17.920;2024-02-21T06:55:54;100844.04;;;5.89;88.79
79366;BME280;68833;53.160;17.920;2024-02-21T06:58:20;100837.77;;;5.89;88.46
79366;BME280;68833;53.160;17.920;2024-02-21T07:00:46;100835.36;;;5.91;88.79
79366;BME280;68833;53.160;17.920;2024-02-21T07:03:13;100834.84;;;5.91;88.87
79366;BME280;68833;53.160;17.920;2024-02-21T07:05:39;100838.15;;;5.93;88.86
79366;BME280;68833;53.160;17.920;2024-02-21T07:08:06;100836.59;;;5.91;88.63
79366;BME280;68833;53.160;17.920;2024-02-21T07:10:32;100829.41;;;5.89;88.65
79366;BME280;68833;53.160;17.920;2024-02-21T07:12:58;100817.04;;;5.90;88.57
79366;BME280;68833;53.160;17.920;2024-02-21T07:15:24;100812.87;;;5.91;88.53
79366;BME280;68833;53.160;17.920;2024-02-21T07:17:52;100810.27;;;5.94;88.87
79366;BME280;68833;53.160;17.920;2024-02-21T07:20:19;100809.25;;;5.94;88.74
79366;BME280;68833;53.160;17.920;2024-02-21T07:22:45;100810.66;;;5.95;88.83
79366;BME280;68833;53.160;17.920;2024-02-21T07:25:12;100811.00;;;5.95;88.73
79366;BME280;68833;53.160;17.920;2024-02-21T07:27:38;100809.95;;;5.95;88.69
79366;BME280;68833;53.160;17.920;2024-02-21T07:30:06;100805.08;;;5.96;88.62
79366;BME280;68833;53.160;17.920;2024-02-21T07:32:32;100806.02;;;5.98;89.01
79366;BME280;68833;53.160;17.920;2024-02-21T07:34:59;100803.21;;;5.98;88.83
79366;BME280;68833;53.160;17.920;2024-02-21T07:37:25;100801.84;;;6.00;88.70
79366;BME280;68833;53.160;17.920;2024-02-21T07:39:51;100799.92;;;6.00;88.71
79366;BME280;68833;53.160;17.920;2024-02-21T07:42:18;100801.33;;;6.00;88.70
79366;BME280;68833;53.160;17.920;2024-02-21T07:44:45;100800.30;;;6.02;88.83
79366;BME280;68833;53.160;17.920;2024-02-21T07:47:11;100796.48;;;6.03;88.71
79366;BME280;68833;53.160;17.920;2024-02-21T07:49:43;100793.67;;;6.02;88.91
79366;BME280;68833;53.160;17.920;2024-02-21T07:52:10;100795.23;;;6.01;88.55
79366;BME280;68833;53.160;17.920;2024-02-21T07:54:36;100795.39;;;5.99;88.70
79366;BME280;68833;53.160;17.920;2024-02-21T07:57:03;100791.56;;;6.00;88.99
79366;BME280;68833;53.160;17.920;2024-02-21T07:59:29;100783.02;;;6.00;88.86
79366;BME280;68833;53.160;17.920;2024-02-21T08:01:56;100783.73;;;6.00;88.73
79366;BME280;68833;53.160;17.920;2024-02-21T08:04:24;100787.73;;;6.01;89.12
79366;BME280;68833;53.160;17.920;2024-02-21T08:06:54;100790.17;;;6.01;88.87
79366;BME280;68833;53.160;17.920;2024-02-21T08:09:27;100789.48;;;6.01;89.15
79366;BME280;68833;53.160;17.920;2024-02-21T08:11:54;100782.17;;;6.02;89.17
79366;BME280;68833;53.160;17.920;2024-02-21T08:14:21;100782.53;;;6.03;89.11
79366;BME280;68833;53.160;17.920;2024-02-21T08:16:48;100779.92;;;6.04;89.03
79366;BME280;68833;53.160;17.920;2024-02-21T08:19:14;100771.73;;;6.04;89.18
79366;BME280;68833;53.160;17.920;2024-02-21T08:21:41;100770.69;;;6.05;89.10
79366;BME280;68833;53.160;17.920;2024-02-21T08:24:07;100761.27;;;6.05;89.09
79366;BME280;68833;53.160;17.920;2024-02-21T08:26:33;100754.30;;;6.05;89.33
79366;BME280;68833;53.160;17.920;2024-02-21T08:29:13;100753.10;;;6.07;89.26
79366;BME280;68833;53.160;17.920;2024-02-21T08:31:40;100759.75;;;6.08;89.17
79366;BME280;68833;53.160;17.920;2024-02-21T08:34:06;100764.11;;;6.10;89.50
79366;BME280;68833;53.160;17.920;2024-02-21T08:36:34;100763.42;;;6.09;89.29
79366;BME280;68833;53.160;17.920;2024-02-21T08:39:01;100762.19;;;6.08;89.19
79366;BME280;68833;53.160;17.920;2024-02-21T08:41:32;100763.41;;;6.08;89.41
79366;BME280;68833;53.160;17.920;2024-02-21T08:44:00;100758.69;;;6.07;89.44
79366;BME280;68833;53.160;17.920;2024-02-21T08:46:26;100755.91;;;6.09;89.50
79366;BME280;68833;53.160;17.920;2024-02-21T08:48:54;100753.49;;;6.10;89.21
79366;BME280;68833;53.160;17.920;2024-02-21T08:51:20;100748.60;;;6.10;89.08
79366;BME280;68833;53.160;17.920;2024-02-21T08:53:47;100742.83;;;6.07;89.53
79366;BME280;68833;53.160;17.920;2024-02-21T08:56:14;100742.13;;;6.07;89.42
79366;BME280;68833;53.160;17.920;2024-02-21T08:58:41;100739.69;;;6.09;89.53
79366;BME280;68833;53.160;17.920;2024-02-21T09:01:08;100741.10;;;6.11;89.29
79366;BME280;68833;53.160;17.920;2024-02-21T09:03:38;100742.02;;;6.13;89.54
79366;BME280;68833;53.160;17.920;2024-02-21T09:06:05;100741.66;;;6.15;89.62
79366;BME280;68833;53.160;17.920;2024-02-21T09:08:32;100735.41;;;6.15;89.36
79366;BME280;68833;53.160;17.920;2024-02-21T09:10:59;100737.49;;;6.16;89.60
79366;BME280;68833;53.160;17.920;2024-02-21T09:13:26;100739.78;;;6.18;89.41
79366;BME280;68833;53.160;17.920;2024-02-21T09:15:53;100740.66;;;6.19;89.77
79366;BME280;68833;53.160;17.920;2024-02-21T09:18:19;100735.42;;;6.19;89.56
79366;BME280;68833;53.160;17.920;2024-02-21T09:20:45;100736.13;;;6.19;89.50
79366;BME280;68833;53.160;17.920;2024-02-21T09:23:12;100739.98;;;6.19;89.53
79366;BME280;68833;53.160;17.920;2024-02-21T09:25:38;100738.77;;;6.21;89.53
79366;BME280;68833;53.160;17.920;2024-02-21T09:28:04;100735.30;;;6.22;89.41
79366;BME280;68833;53.160;17.920;2024-02-21T09:30:32;100734.59;;;6.22;89.73
79366;BME280;68833;53.160;17.920;2024-02-21T09:32:59;100731.13;;;6.24;89.37
79366;BME280;68833;53.160;17.920;2024-02-21T09:35:28;100732.54;;;6.27;89.50
79366;BME280;68833;53.160;17.920;2024-02-21T09:37:54;100723.84;;;6.28;89.57
79366;BME280;68833;53.160;17.920;2024-02-21T09:40:21;100722.98;;;6.30;89.68
79366;BME280;68833;53.160;17.920;2024-02-21T09:42:48;100722.30;;;6.31;89.64
79366;BME280;68833;53.160;17.920;2024-02-21T09:45:23;100722.46;;;6.31;89.55
79366;BME280;68833;53.160;17.920;2024-02-21T09:50:47;100716.39;;;6.34;89.63
79366;BME280;68833;53.160;17.920;2024-02-21T09:53:14;100716.56;;;6.34;89.63
79366;BME280;68833;53.160;17.920;2024-02-21T09:55:42;100715.16;;;6.34;89.73
79366;BME280;68833;53.160;17.920;2024-02-21T09:58:09;100721.64;;;6.35;89.77
79366;BME280;68833;53.160;17.920;2024-02-21T10:00:36;100723.03;;;6.35;89.61
79366;BME280;68833;53.160;17.920;2024-02-21T10:03:05;100725.46;;;6.34;89.83
79366;BME280;68833;53.160;17.920;2024-02-21T10:05:34;100720.42;;;6.36;89.74
79366;BME280;68833;53.160;17.920;2024-02-21T10:08:02;100722.19;;;6.39;89.96
79366;BME280;68833;53.160;17.920;2024-02-21T10:10:29;100724.80;;;6.39;89.84
79366;BME280;68833;53.160;17.920;2024-02-21T10:12:56;100725.52;;;6.39;89.87
79366;BME280;68833;53.160;17.920;2024-02-21T10:15:24;100723.05;;;6.39;89.93
79366;BME280;68833;53.160;17.920;2024-02-21T10:18:01;100721.50;;;6.40;89.97
79366;BME280;68833;53.160;17.920;2024-02-21T10:20:27;100718.17;;;6.41;89.86
79366;BME280;68833;53.160;17.920;2024-02-21T10:23:04;100716.63;;;6.41;89.90
79366;BME280;68833;53.160;17.920;2024-02-21T10:25:35;100714.71;;;6.43;89.94
79366;BME280;68833;53.160;17.920;2024-02-21T10:28:02;100708.97;;;6.45;89.99
79366;BME280;68833;53.160;17.920;2024-02-21T10:30:29;100706.00;;;6.45;90.06
79366;BME280;68833;53.160;17.920;2024-02-21T10:32:56;100704.27;;;6.45;89.92
79366;BME280;68833;53.160;17.920;2024-02-21T11:03:39;100655.77;;;6.72;90.12
79366;BME280;68833;53.160;17.920;2024-02-21T11:06:07;100652.11;;;6.72;90.06
79366;BME280;68833;53.160;17.920;2024-02-21T11:08:36;100647.76;;;6.73;90.13
79366;BME280;68833;53.160;17.920;2024-02-21T11:11:04;100642.35;;;6.74;90.06
79366;BME280;68833;53.160;17.920;2024-02-21T11:13:34;100637.30;;;6.77;90.14
79366;BME280;68833;53.160;17.920;2024-02-21T11:16:08;100631.20;;;6.79;90.27
79366;BME280;68833;53.160;17.920;2024-02-21T11:18:37;100625.28;;;6.80;90.23
79366;BME280;68833;53.160;17.920;2024-02-21T11:21:04;100621.25;;;6.79;90.14
79366;BME280;68833;53.160;17.920;2024-02-21T11:23:32;100616.90;;;6.82;90.41
79366;BME280;68833;53.160;17.920;2024-02-21T11:26:08;100611.14;;;6.83;90.31
79366;BME280;68833;53.160;17.920;2024-02-21T11:28:36;100608.71;;;6.86;90.22
79366;BME280;68833;53.160;17.920;2024-02-21T11:31:07;100605.92;;;6.87;90.20
79366;BME280;68833;53.160;17.920;2024-02-21T11:33:35;100607.67;;;6.88;90.23
79366;BME280;68833;53.160;17.920;2024-02-21T11:36:02;100601.22;;;6.88;90.16
79366;BME280;68833;53.160;17.920;2024-02-21T11:38:31;100595.64;;;6.88;90.26
79366;BME280;68833;53.160;17.920;2024-02-21T11:40:58;100591.44;;;6.88;90.29
79366;BME280;68833;53.160;17.920;2024-02-21T11:43:25;100588.14;;;6.89;90.23
79366;BME280;68833;53.160;17.920;2024-02-21T11:46:00;100589.19;;;6.91;90.40
79366;BME280;68833;53.160;17.920;2024-02-21T11:48:33;100587.97;;;6.95;90.27
79366;BME280;68833;53.160;17.920;2024-02-21T11:51:01;100589.91;;;6.98;90.30
79366;BME280;68833;53.160;17.920;2024-02-21T11:53:30;100587.29;;;6.98;90.20
79366;BME280;68833;53.160;17.920;2024-02-21T11:55:57;100592.88;;;7.00;90.18
79366;BME280;68833;53.160;17.920;2024-02-21T11:58:24;100592.19;;;7.02;90.20
79366;BME280;68833;53.160;17.920;2024-02-21T12:00:53;100592.55;;;7.04;89.99
79366;BME280;68833;53.160;17.920;2024-02-21T12:03:20;100590.11;;;7.05;90.19
79366;BME280;68833;53.160;17.920;2024-02-21T12:05:48;100583.30;;;7.05;90.00
79366;BME280;68833;53.160;17.920;2024-02-21T12:08:15;100575.77;;;7.03;90.19
79366;BME280;68833;53.160;17.920;2024-02-21T12:10:42;100573.17;;;7.05;90.16
79366;BME280;68833;53.160;17.920;2024-02-21T12:13:11;100572.31;;;7.07;90.04
79366;BME280;68833;53.160;17.920;2024-02-21T12:15:39;100570.39;;;7.10;90.27
79366;BME280;68833;53.160;17.920;2024-02-21T12:18:07;100571.80;;;7.12;90.14
79366;BME280;68833;53.160;17.920;2024-02-21T12:20:35;100568.65;;;7.12;89.98
79366;BME280;68833;53.160;17.920;2024-02-21T12:23:03;100565.16;;;7.12;89.95
79366;BME280;68833;53.160;17.920;2024-02-21T12:25:31;100562.89;;;7.12;90.09
79366;BME280;68833;53.160;17.920;2024-02-21T12:27:58;100562.20;;;7.13;90.14
79366;BME280;68833;53.160;17.920;2024-02-21T12:30:26;100571.29;;;7.15;90.04
79366;BME280;68833;53.160;17.920;2024-02-21T12:32:53;100574.79;;;7.15;89.98
79366;BME280;68833;53.160;17.920;2024-02-21T12:35:20;100572.86;;;7.15;90.10
79366;BME280;68833;53.160;17.920;2024-02-21T12:37:47;100566.91;;;7.14;90.03
79366;BME280;68833;53.160;17.920;2024-02-21T12:40:14;100563.94;;;7.15;89.93
79366;BME280;68833;53.160;17.920;2024-02-21T12:42:42;100557.85;;;7.15;90.08
79366;BME280;68833;53.160;17.920;2024-02-21T12:45:09;100562.20;;;7.17;89.80
79366;BME280;68833;53.160;17.920;2024-02-21T12:47:36;100565.17;;;7.18;90.01
79366;BME280;68833;53.160;17.920;2024-02-21T12:50:04;100561.16;;;7.17;89.90
79366;BME280;68833;53.160;17.920;2024-02-21T12:52:33;100563.43;;;7.17;89.99
79366;BME280;68833;53.160;17.920;2024-02-21T12:55:00;100561.16;;;7.17;89.91
79366;BME280;68833;53.160;17.920;2024-02-21T12:57:27;100556.44;;;7.19;89.80
79366;BME280;68833;53.160;17.920;2024-02-21T12:59:54;100552.80;;;7.20;90.03
79366;BME280;68833;53.160;17.920;2024-02-21T13:02:21;100556.11;;;7.20;90.29
79366;BME280;68833;53.160;17.920;2024-02-21T13:04:48;100553.66;;;7.20;89.92
79366;BME280;68833;53.160;17.920;2024-02-21T13:07:15;100548.59;;;7.19;89.73
79366;BME280;68833;53.160;17.920;2024-02-21T13:09:42;100547.55;;;7.21;90.10
79366;BME280;68833;53.160;17.920;2024-02-21T13:12:09;100542.30;;;7.22;90.06
79366;BME280;68833;53.160;17.920;2024-02-21T13:14:38;100544.75;;;7.24;89.77
79366;BME280;68833;53.160;17.920;2024-02-21T13:17:06;100539.17;;;7.24;89.95
79366;BME280;68833;53.160;17.920;2024-02-21T13:19:33;100537.23;;;7.25;90.10
79366;BME280;68833;53.160;17.920;2024-02-21T13:22:00;100543.02;;;7.26;90.02
79366;BME280;68833;53.160;17.920;2024-02-21T13:24:30;100544.95;;;7.27;90.26
79366;BME280;68833;53.160;17.920;2024-02-21T13:26:58;100541.11;;;7.28;89.95
79366;BME280;68833;53.160;17.920;2024-02-21T13:29:25;100541.98;;;7.28;89.87